createdAt,value
2023-02-12T00:07:03.229Z,0
2023-02-12T00:37:10.087Z,0
2023-02-12T01:07:12.982Z,0
2023-02-12T01:37:13.000Z,0.0
2023-02-12T02:07:19.016Z,0
2023-02-12T02:37:22.969Z,0
2023-02-12T03:07:26.028Z,0
2023-02-12T03:37:30.938Z,0
2023-02-12T04:07:36.915Z,0
2023-02-12T04:37:42.854Z,0
2023-02-12T05:07:44.870Z,0
2023-02-12T05:37:52.843Z,0
2023-02-12T06:08:03.986Z,0
2023-02-12T06:38:09.000Z,3.0
2023-02-12T07:08:15.687Z,15
2023-02-12T07:38:18.675Z,34
2023-02-12T08:08:22.577Z,57
2023-02-12T08:38:25.547Z,79
2023-02-12T09:08:29.610Z,122
2023-02-12T09:38:33.634Z,127
2023-02-12T10:08:43.527Z,128
2023-02-12T10:38:52.593Z,135
2023-02-12T11:08:59.000Z,144.0
2023-02-12T11:39:01.561Z,169
2023-02-12T12:09:05.000Z,153.0
2023-02-12T12:39:08.573Z,168
2023-02-12T13:09:14.553Z,163
2023-02-12T13:39:18.474Z,143
2023-02-12T14:09:25.000Z,103.0
2023-02-12T14:50:08.000Z,48.0
2023-02-12T14:50:18.000Z,45.0
2023-02-12T14:50:28.000Z,42.0
2023-02-12T14:50:39.000Z,40.0
2023-02-12T14:50:49.000Z,38.0
2023-02-12T14:51:00.000Z,38.0
2023-02-12T14:51:10.000Z,38.0
2023-02-12T15:23:23.000Z,30.0
2023-02-12T15:53:28.000Z,21.0
2023-02-12T16:23:32.000Z,10.0
2023-02-12T16:53:39.000Z,1.0
2023-02-12T17:23:46.000Z,0.0
2023-02-12T17:53:49.275Z,1
2023-02-12T18:23:59.000Z,1.0
2023-02-12T18:54:01.000Z,0.0
2023-02-12T19:24:07.000Z,2.0
2023-02-12T19:54:12.000Z,1.0
2023-02-12T20:24:16.000Z,2.0
2023-02-12T20:54:22.000Z,1.0
2023-02-12T21:24:27.000Z,1.0
2023-02-12T21:54:33.000Z,1.0
2023-02-12T22:24:38.843Z,2
2023-02-12T22:54:44.000Z,2.0
2023-02-12T23:24:51.000Z,1.0
2023-02-12T23:54:59.000Z,1.0
